| time (UTC) | temp F | wind direction | speed MPH | gust MPH | rain 1hr in | rain 24hr in | rain mn in | humidity % | barometer mb |
| 20260903212003 | 74 | 60 | 1.0 | 5.0 | 0.00 | 0.21 | 0.17 | 67 | 1012.5 |
| 20260903211003 | 75 | 228 | 2.0 | 8.0 | 0.00 | 0.21 | 0.17 | 65 | 1012.5 |
| 20260903210024 | 75 | 242 | 3.0 | 9.0 | 0.00 | 0.21 | 0.17 | 65 | 1012.5 |
| 20260903205003 | 76 | 223 | 3.0 | 9.0 | 0.00 | 0.21 | 0.17 | 65 | 1012.4 |
| 20260903204003 | 75 | 227 | 4.0 | 10.0 | 0.00 | 0.21 | 0.17 | 63 | 1012.8 |
| 20260903203004 | 75 | 226 | 3.0 | 10.0 | 0.00 | 0.21 | 0.17 | 65 | 1012.6 |
| 20260903202003 | 75 | 223 | 4.0 | 11.0 | 0.00 | 0.21 | 0.17 | 65 | 1012.4 |
| 20260903201003 | 75 | 222 | 4.0 | 9.0 | 0.00 | 0.21 | 0.17 | 64 | 1012.6 |
| 20260903200003 | 76 | 228 | 4.0 | 10.0 | 0.00 | 0.21 | 0.17 | 62 | 1012.5 |
| 20260903195003 | 76 | 229 | 3.0 | 7.0 | 0.00 | 0.21 | 0.17 | 62 | 1012.6 |
| 20260903194024 | 76 | 238 | 3.0 | 8.0 | 0.00 | 0.21 | 0.17 | 62 | 1012.6 |
| 20260903193003 | 77 | 238 | 3.0 | 14.0 | 0.00 | 0.21 | 0.17 | 61 | 1012.5 |
| 20260903192003 | 76 | 225 | 3.0 | 9.0 | 0.00 | 0.21 | 0.17 | 63 | 1012.7 |
| 20260903191003 | 77 | 231 | 5.0 | 13.0 | 0.00 | 0.21 | 0.17 | 60 | 1012.7 |
| 20260903190003 | 77 | 191 | 2.0 | 8.0 | 0.00 | 0.21 | 0.17 | 61 | 1012.5 |
| 20260903185003 | 76 | 223 | 4.0 | 11.0 | 0.00 | 0.21 | 0.17 | 62 | 1012.6 |
| 20260903184003 | 77 | 229 | 4.0 | 11.0 | 0.00 | 0.21 | 0.17 | 61 | 1012.4 |
| 20260903183024 | 77 | 223 | 4.0 | 9.0 | 0.00 | 0.21 | 0.17 | 63 | 1012.5 |
| 20260903182003 | 77 | 290 | 3.0 | 10.0 | 0.00 | 0.21 | 0.17 | 60 | 1012.5 |
| 20260903181024 | 78 | 223 | 4.0 | 12.0 | 0.00 | 0.21 | 0.17 | 62 | 1012.5 |
| 20260903180024 | 76 | 225 | 5.0 | 11.0 | 0.00 | 0.21 | 0.17 | 66 | 1012.5 |
| 20260903175003 | 76 | 221 | 4.0 | 8.0 | 0.00 | 0.21 | 0.17 | 68 | 1012.6 |
| 20260903174024 | 75 | 234 | 3.0 | 8.0 | 0.00 | 0.21 | 0.17 | 67 | 1012.6 |
| 20260903173003 | 76 | 241 | 4.0 | 9.0 | 0.00 | 0.21 | 0.17 | 66 | 1012.6 |
| 20260903172003 | 76 | 226 | 4.0 | 13.0 | 0.00 | 0.21 | 0.17 | 67 | 1012.6 |
| 20260903171003 | 75 | 255 | 3.0 | 6.0 | 0.00 | 0.21 | 0.17 | 73 | 1012.7 |
| 20260903170024 | 75 | 228 | 6.0 | 14.0 | 0.00 | 0.21 | 0.17 | 74 | 1012.6 |
| 20260903165024 | 74 | 232 | 3.0 | 10.0 | 0.00 | 0.21 | 0.17 | 75 | 1012.7 |
| 20260903164003 | 74 | 226 | 4.0 | 9.0 | 0.00 | 0.21 | 0.17 | 78 | 1012.7 |
| 20260903163003 | 72 | 240 | 2.0 | 5.0 | 0.00 | 0.21 | 0.17 | 81 | 1012.8 |
| 20260903162003 | 72 | 224 | 3.0 | 9.0 | 0.00 | 0.21 | 0.17 | 83 | 1012.9 |
| 20260903161003 | 72 | 220 | 3.0 | 8.0 | 0.00 | 0.21 | 0.17 | 81 | 1013.1 |
| 20260903160003 | 71 | 221 | 2.0 | 6.0 | 0.00 | 0.21 | 0.17 | 87 | 1013.2 |
| 20260903155003 | 70 | 242 | 2.0 | 4.0 | 0.00 | 0.21 | 0.17 | 88 | 1013.1 |
| 20260903154003 | 70 | 228 | 2.0 | 7.0 | 0.00 | 0.21 | 0.17 | 88 | 1013.1 |
| 20260903153003 | 70 | 223 | 4.0 | 11.0 | 0.00 | 0.21 | 0.17 | 89 | 1013.0 |
| 20260903152003 | 69 | 230 | 2.0 | 5.0 | 0.00 | 0.21 | 0.17 | 93 | 1013.1 |
| 20260903151003 | 69 | 0 | 0.0 | 0.0 | 0.00 | 0.21 | 0.17 | 95 | 1013.2 |
| 20260903150003 | 68 | 227 | 1.0 | 3.0 | 0.00 | 0.21 | 0.17 | 94 | 1013.2 |
| 20260903145003 | 68 | 227 | 0.0 | 2.0 | 0.00 | 0.21 | 0.17 | 95 | 1013.2 |
| 20260903144003 | 68 | 227 | 1.0 | 4.0 | 0.00 | 0.21 | 0.17 | 95 | 1013.2 |
| 20260903143004 | 68 | 228 | 1.0 | 5.0 | 0.00 | 0.21 | 0.17 | 95 | 1013.2 |
| 20260903142003 | 68 | 227 | 2.0 | 6.0 | 0.00 | 0.21 | 0.17 | 95 | 1013.1 |
| 20260903141003 | 68 | 225 | 2.0 | 4.0 | 0.00 | 0.21 | 0.17 | 95 | 1013.1 |
| 20260903140024 | 67 | 224 | 2.0 | 5.0 | 0.00 | 0.21 | 0.17 | 95 | 1013.1 |
| 20260903135003 | 67 | 220 | 2.0 | 4.0 | 0.00 | 0.21 | 0.17 | 95 | 1013.3 |
| 20260903134003 | 67 | 214 | 2.0 | 5.0 | 0.00 | 0.21 | 0.17 | 95 | 1013.3 |
| 20260903133003 | 67 | 223 | 3.0 | 6.0 | 0.00 | 0.21 | 0.17 | 95 | 1013.3 |
| 20260903132003 | 67 | 221 | 3.0 | 5.0 | 0.00 | 0.21 | 0.17 | 95 | 1013.3 |
| 20260903131003 | 67 | 221 | 2.0 | 4.0 | 0.00 | 0.21 | 0.17 | 95 | 1013.3 |
| 20260903130003 | 67 | 223 | 3.0 | 5.0 | 0.00 | 0.21 | 0.17 | 95 | 1013.3 |
| 20260903125003 | 66 | 220 | 2.0 | 5.0 | 0.00 | 0.21 | 0.17 | 95 | 1013.3 |
| 20260903124024 | 66 | 223 | 2.0 | 5.0 | 0.00 | 0.21 | 0.17 | 95 | 1013.4 |
| 20260903123003 | 66 | 232 | 2.0 | 5.0 | 0.00 | 0.21 | 0.17 | 95 | 1013.4 |
| 20260903122003 | 66 | 225 | 1.0 | 4.0 | 0.00 | 0.21 | 0.17 | 95 | 1013.4 |
| 20260903121003 | 66 | 225 | 0.0 | 2.0 | 0.00 | 0.21 | 0.17 | 95 | 1013.5 |
| 20260903120024 | 66 | 226 | 2.0 | 5.0 | 0.00 | 0.21 | 0.17 | 95 | 1013.3 |
| 20260903115024 | 66 | 213 | 1.0 | 3.0 | 0.00 | 0.21 | 0.17 | 96 | 1013.4 |
| 20260903114003 | 66 | 213 | 1.0 | 4.0 | 0.00 | 0.21 | 0.17 | 96 | 1013.4 |
| 20260903113003 | 66 | 220 | 2.0 | 5.0 | 0.00 | 0.21 | 0.17 | 96 | 1013.5 |
| 20260903112003 | 66 | 223 | 2.0 | 6.0 | 0.00 | 0.21 | 0.17 | 96 | 1013.4 |
| 20260903111024 | 66 | 222 | 3.0 | 6.0 | 0.00 | 0.21 | 0.17 | 96 | 1013.3 |
| 20260903110003 | 66 | 224 | 3.0 | 6.0 | 0.00 | 0.21 | 0.17 | 96 | 1013.4 |
| 20260903105003 | 65 | 228 | 2.0 | 4.0 | 0.00 | 0.21 | 0.17 | 96 | 1013.3 |
| 20260903104024 | 65 | 224 | 3.0 | 6.0 | 0.00 | 0.21 | 0.17 | 96 | 1013.3 |
| 20260903103003 | 65 | 230 | 2.0 | 6.0 | 0.00 | 0.21 | 0.17 | 96 | 1013.1 |
| 20260903102003 | 65 | 223 | 2.0 | 3.0 | 0.00 | 0.21 | 0.17 | 96 | 1013.0 |
| 20260903101024 | 65 | 223 | 1.0 | 3.0 | 0.00 | 0.21 | 0.17 | 96 | 1013.0 |
| 20260903100003 | 65 | 223 | 1.0 | 3.0 | 0.00 | 0.21 | 0.17 | 96 | 1012.9 |
| 20260903095003 | 65 | 223 | 2.0 | 5.0 | 0.00 | 0.21 | 0.17 | 96 | 1013.1 |
| 20260903094003 | 65 | 228 | 1.0 | 3.0 | 0.00 | 0.21 | 0.17 | 96 | 1013.1 |
| 20260903093003 | 65 | 0 | 0.0 | 0.0 | 0.00 | 0.21 | 0.17 | 96 | 1012.9 |
| 20260903092003 | 65 | 228 | 1.0 | 3.0 | 0.00 | 0.21 | 0.17 | 96 | 1012.9 |
| 20260903091024 | 65 | 228 | 2.0 | 3.0 | 0.00 | 0.21 | 0.17 | 96 | 1012.8 |
| 20260903090003 | 65 | 221 | 1.0 | 5.0 | 0.00 | 0.21 | 0.17 | 95 | 1012.9 |
| 20260903085003 | 65 | 210 | 2.0 | 4.0 | 0.00 | 0.21 | 0.17 | 95 | 1012.9 |
| 20260903084003 | 65 | 210 | 2.0 | 4.0 | 0.00 | 0.21 | 0.17 | 95 | 1012.9 |
| 20260903083024 | 65 | 210 | 1.0 | 4.0 | 0.00 | 0.21 | 0.17 | 95 | 1013.1 |
| 20260903082024 | 65 | 210 | 1.0 | 4.0 | 0.00 | 0.21 | 0.17 | 95 | 1013.2 |
| 20260903081003 | 65 | 210 | 1.0 | 4.0 | 0.00 | 0.21 | 0.17 | 95 | 1013.3 |
| 20260903080003 | 65 | 227 | 2.0 | 7.0 | 0.00 | 0.21 | 0.17 | 95 | 1013.3 |
| 20260903075003 | 65 | 228 | 0.0 | 1.0 | 0.00 | 0.21 | 0.17 | 95 | 1013.3 |
| 20260903074003 | 65 | 0 | 0.0 | 0.0 | 0.01 | 0.21 | 0.17 | 95 | 1013.3 |
| 20260903073003 | 65 | 0 | 0.0 | 0.0 | 0.01 | 0.21 | 0.17 | 95 | 1013.3 |
| 20260903072003 | 65 | 0 | 0.0 | 0.0 | 0.01 | 0.21 | 0.17 | 95 | 1013.2 |
| 20260903071003 | 65 | 228 | 0.0 | 2.0 | 0.01 | 0.21 | 0.17 | 95 | 1013.4 |
| 20260903070003 | 65 | 229 | 1.0 | 5.0 | 0.01 | 0.21 | 0.17 | 95 | 1013.4 |
| 20260903065003 | 65 | 195 | 0.0 | 4.0 | 0.01 | 0.21 | 0.17 | 94 | 1013.4 |
| 20260903064003 | 65 | 142 | 0.0 | 3.0 | 0.00 | 0.20 | 0.16 | 94 | 1013.4 |
| 20260903063004 | 65 | 132 | 0.0 | 6.0 | 0.00 | 0.20 | 0.16 | 94 | 1013.2 |
| 20260903062024 | 65 | 108 | 0.0 | 6.0 | 0.00 | 0.20 | 0.16 | 94 | 1013.2 |
| 20260903061003 | 65 | 0 | 0.0 | 0.0 | 0.00 | 0.20 | 0.16 | 94 | 1013.3 |
| 20260903060003 | 65 | 227 | 2.0 | 5.0 | 0.00 | 0.20 | 0.16 | 94 | 1013.3 |
| 20260903055003 | 65 | 226 | 3.0 | 7.0 | 0.00 | 0.20 | 0.16 | 94 | 1013.3 |
| 20260903054003 | 65 | 230 | 3.0 | 9.0 | 0.02 | 0.20 | 0.16 | 94 | 1013.3 |
| 20260903053003 | 65 | 225 | 2.0 | 8.0 | 0.08 | 0.20 | 0.16 | 94 | 1013.2 |
| 20260903052003 | 65 | 224 | 4.0 | 12.0 | 0.13 | 0.20 | 0.16 | 94 | 1013.1 |
| 20260903051024 | 65 | 222 | 3.0 | 11.0 | 0.15 | 0.20 | 0.16 | 95 | 1013.1 |
| 20260903050003 | 65 | 228 | 1.0 | 4.0 | 0.15 | 0.20 | 0.16 | 94 | 1013.3 |
| 20260903045003 | 65 | 229 | 0.0 | 3.0 | 0.16 | 0.20 | 0.16 | 94 | 1013.4 |
| 20260903044003 | 65 | 230 | 2.0 | 4.0 | 0.15 | 0.18 | 0.14 | 94 | 1013.2 |
| 20260903043003 | 65 | 231 | 0.0 | 2.0 | 0.09 | 0.11 | 0.07 | 94 | 1013.4 |
| 20260903042003 | 65 | 231 | 0.0 | 3.0 | 0.05 | 0.07 | 0.03 | 94 | 1013.1 |
| 20260903041003 | 65 | 0 | 0.0 | 0.0 | 0.04 | 0.05 | 0.01 | 93 | 1013.0 |
| 20260903040004 | 65 | 231 | 0.0 | 1.0 | 0.03 | 0.04 | 0.00 | 93 | 1013.1 |
| 20260903035003 | 65 | 231 | 0.0 | 3.0 | 0.03 | 0.04 | 0.04 | 92 | 1013.1 |
| 20260903034003 | 65 | 229 | 1.0 | 6.0 | 0.02 | 0.03 | 0.03 | 92 | 1013.1 |
| 20260903033003 | 65 | 227 | 1.0 | 8.0 | 0.01 | 0.02 | 0.02 | 92 | 1013.5 |
| 20260903032003 | 65 | 217 | 2.0 | 4.0 | 0.01 | 0.02 | 0.02 | 91 | 1013.8 |
| 20260903031024 | 66 | 218 | 2.0 | 6.0 | 0.00 | 0.01 | 0.01 | 89 | 1013.7 |
| 20260903030003 | 66 | 229 | 3.0 | 7.0 | 0.00 | 0.01 | 0.01 | 88 | 1013.4 |
| 20260903025003 | 66 | 230 | 4.0 | 8.0 | 0.00 | 0.01 | 0.01 | 88 | 1013.1 |
| 20260903024003 | 66 | 240 | 4.0 | 10.0 | 0.00 | 0.01 | 0.01 | 88 | 1013.6 |
| 20260903023003 | 66 | 241 | 3.0 | 7.0 | 0.00 | 0.01 | 0.01 | 89 | 1013.7 |
| 20260903022005 | 66 | 231 | 3.0 | 7.0 | 0.01 | 0.01 | 0.01 | 89 | 1013.9 |
| 20260903021003 | 65 | 234 | 3.0 | 14.0 | 0.01 | 0.01 | 0.01 | 89 | 1014.2 |
| 20260903020003 | 65 | 249 | 0.0 | 3.0 | 0.01 | 0.01 | 0.01 | 90 | 1014.1 |
| 20260903015003 | 65 | 0 | 0.0 | 0.0 | 0.01 | 0.01 | 0.01 | 90 | 1013.8 |
| 20260903014003 | 65 | 235 | 1.0 | 6.0 | 0.01 | 0.01 | 0.01 | 89 | 1014.0 |
| 20260903013024 | 65 | 233 | 2.0 | 9.0 | 0.01 | 0.01 | 0.01 | 90 | 1014.3 |
| 20260903012003 | 65 | 222 | 1.0 | 3.0 | 0.00 | 0.00 | 0.00 | 89 | 1014.7 |
| 20260903011003 | 65 | 222 | 2.0 | 3.0 | 0.00 | 0.00 | 0.00 | 89 | 1014.8 |
| 20260903010003 | 65 | 221 | 0.0 | 4.0 | 0.00 | 0.00 | 0.00 | 89 | 1015.1 |
| 20260903005003 | 65 | 224 | 1.0 | 6.0 | 0.00 | 0.00 | 0.00 | 89 | 1015.3 |
| 20260903004003 | 65 | 233 | 1.0 | 8.0 | 0.00 | 0.00 | 0.00 | 90 | 1015.3 |
| 20260903003024 | 65 | 240 | 1.0 | 8.0 | 0.00 | 0.00 | 0.00 | 89 | 1015.3 |
| 20260903002003 | 65 | 240 | 2.0 | 7.0 | 0.00 | 0.00 | 0.00 | 89 | 1015.5 |
| 20260903001003 | 65 | 235 | 2.0 | 8.0 | 0.00 | 0.00 | 0.00 | 89 | 1015.6 |
| 20260903000003 | 65 | 241 | 1.0 | 4.0 | 0.00 | 0.00 | 0.00 | 89 | 1015.5 |
| 20260902235003 | 65 | 0 | 0.0 | 0.0 | 0.00 | 0.00 | 0.00 | 89 | 1015.2 |
| 20260902234003 | 65 | 55 | 0.0 | 3.0 | 0.00 | 0.00 | 0.00 | 89 | 1014.8 |
| 20260902233003 | 65 | 116 | 0.0 | 4.0 | 0.00 | 0.00 | 0.00 | 89 | 1014.3 |
| 20260902232003 | 65 | 148 | 0.0 | 2.0 | 0.00 | 0.00 | 0.00 | 88 | 1014.6 |
| 20260902231003 | 65 | 227 | 2.0 | 11.0 | 0.00 | 0.00 | 0.00 | 88 | 1014.6 |
| 20260902230003 | 65 | 277 | 1.0 | 4.0 | 0.00 | 0.00 | 0.00 | 87 | 1014.6 |
| 20260902225003 | 66 | 119 | 1.0 | 4.0 | 0.00 | 0.00 | 0.00 | 87 | 1014.9 |
| 20260902224003 | 66 | 55 | 1.0 | 6.0 | 0.00 | 0.00 | 0.00 | 86 | 1015.3 |
| 20260902223024 | 66 | 0 | 0.0 | 0.0 | 0.00 | 0.00 | 0.00 | 86 | 1015.2 |
| 20260902222003 | 66 | 19 | 0.0 | 2.0 | 0.00 | 0.00 | 0.00 | 86 | 1015.3 |
| 20260902221024 | 66 | 9 | 1.0 | 4.0 | 0.00 | 0.00 | 0.00 | 86 | 1015.8 |
| 20260902220024 | 67 | 246 | 1.0 | 3.0 | 0.00 | 0.00 | 0.00 | 85 | 1016.2 |
| 20260902215003 | 66 | 238 | 2.0 | 8.0 | 0.00 | 0.00 | 0.00 | 85 | 1016.3 |
| 20260902214003 | 66 | 252 | 2.0 | 7.0 | 0.00 | 0.00 | 0.00 | 85 | 1016.4 |
| 20260902213024 | 67 | 286 | 1.0 | 5.0 | 0.00 | 0.00 | 0.00 | 85 | 1016.8 |